sensor_id;sensor_type;location;lat;lon;timestamp;pressure;altitude;pressure_sealevel;temperature;humidity
73297;BME280;61524;50.938;11.396;2023-06-14T00:02:11;98963.78;;;13.68;72.67
73297;BME280;61524;50.938;11.396;2023-06-14T00:04:37;98962.69;;;13.59;72.85
73297;BME280;61524;50.938;11.396;2023-06-14T00:07:05;98964.56;;;13.74;72.18
73297;BME280;61524;50.938;11.396;2023-06-14T00:09:33;98970.22;;;13.72;72.08
73297;BME280;61524;50.938;11.396;2023-06-14T00:11:58;98973.44;;;13.59;72.70
73297;BME280;61524;50.938;11.396;2023-06-14T00:14:24;98971.81;;;13.48;73.05
73297;BME280;61524;50.938;11.396;2023-06-14T00:16:49;98969.94;;;13.43;73.50
73297;BME280;61524;50.938;11.396;2023-06-14T00:19:17;98969.09;;;13.32;73.47
73297;BME280;61524;50.938;11.396;2023-06-14T00:21:43;98978.25;;;13.47;73.49
73297;BME280;61524;50.938;11.396;2023-06-14T00:24:08;98985.22;;;13.43;73.15
73297;BME280;61524;50.938;11.396;2023-06-14T00:26:34;98975.81;;;13.45;73.71
73297;BME280;61524;50.938;11.396;2023-06-14T00:28:59;98981.97;;;13.25;73.70
73297;BME280;61524;50.938;11.396;2023-06-14T00:31:25;98980.00;;;13.05;74.14
73297;BME280;61524;50.938;11.396;2023-06-14T00:33:50;98971.13;;;12.90;74.85
73297;BME280;61524;50.938;11.396;2023-06-14T00:36:16;98968.44;;;12.95;74.90
73297;BME280;61524;50.938;11.396;2023-06-14T00:38:41;98964.69;;;12.96;75.04
73297;BME280;61524;50.938;11.396;2023-06-14T00:41:07;98965.72;;;12.84;75.38
73297;BME280;61524;50.938;11.396;2023-06-14T00:43:32;98967.31;;;12.80;74.06
73297;BME280;61524;50.938;11.396;2023-06-14T00:46:00;98968.94;;;12.81;75.16
73297;BME280;61524;50.938;11.396;2023-06-14T00:48:25;98966.72;;;12.63;75.50
73297;BME280;61524;50.938;11.396;2023-06-14T00:50:51;98960.25;;;12.59;75.48
73297;BME280;61524;50.938;11.396;2023-06-14T00:53:18;98965.88;;;12.57;75.72
73297;BME280;61524;50.938;11.396;2023-06-14T00:55:44;98970.78;;;12.66;75.22
73297;BME280;61524;50.938;11.396;2023-06-14T00:58:10;98972.66;;;12.65;75.49
73297;BME280;61524;50.938;11.396;2023-06-14T01:00:36;98968.88;;;12.61;75.64
73297;BME280;61524;50.938;11.396;2023-06-14T01:03:01;98980.03;;;12.48;76.34
73297;BME280;61524;50.938;11.396;2023-06-14T01:05:29;98984.78;;;12.30;75.72
73297;BME280;61524;50.938;11.396;2023-06-14T01:08:31;98975.16;;;12.34;76.17
73297;BME280;61524;50.938;11.396;2023-06-14T01:11:08;98974.56;;;12.22;76.68
73297;BME280;61524;50.938;11.396;2023-06-14T01:13:43;98973.84;;;12.00;76.91
73297;BME280;61524;50.938;11.396;2023-06-14T01:16:11;98973.66;;;12.06;77.37
73297;BME280;61524;50.938;11.396;2023-06-14T01:18:37;98984.88;;;12.03;76.86
73297;BME280;61524;50.938;11.396;2023-06-14T01:21:03;98977.09;;;12.02;77.53
73297;BME280;61524;50.938;11.396;2023-06-14T01:23:32;98976.94;;;11.81;77.63
73297;BME280;61524;50.938;11.396;2023-06-14T01:25:58;98982.91;;;11.62;78.08
73297;BME280;61524;50.938;11.396;2023-06-14T01:28:25;98981.34;;;11.66;77.61
73297;BME280;61524;50.938;11.396;2023-06-14T01:30:54;98982.72;;;11.68;77.70
73297;BME280;61524;50.938;11.396;2023-06-14T01:33:22;98978.22;;;11.74;77.60
73297;BME280;61524;50.938;11.396;2023-06-14T01:35:51;98993.00;;;11.81;76.97
73297;BME280;61524;50.938;11.396;2023-06-14T01:38:22;98973.09;;;11.72;77.96
73297;BME280;61524;50.938;11.396;2023-06-14T01:40:49;98989.31;;;11.88;76.67
73297;BME280;61524;50.938;11.396;2023-06-14T01:43:16;98977.44;;;11.78;76.90
73297;BME280;61524;50.938;11.396;2023-06-14T01:45:42;98977.22;;;11.53;77.49
73297;BME280;61524;50.938;11.396;2023-06-14T01:48:09;98976.38;;;11.47;78.29
73297;BME280;61524;50.938;11.396;2023-06-14T01:50:35;98977.28;;;11.58;77.49
73297;BME280;61524;50.938;11.396;2023-06-14T01:53:00;98965.66;;;11.47;77.79
73297;BME280;61524;50.938;11.396;2023-06-14T01:55:26;98983.53;;;11.42;78.73
73297;BME280;61524;50.938;11.396;2023-06-14T01:57:52;98988.00;;;11.31;78.31
73297;BME280;61524;50.938;11.396;2023-06-14T02:07:01;99001.59;;;11.29;78.36
73297;BME280;61524;50.938;11.396;2023-06-14T02:09:27;98993.81;;;11.28;78.44
73297;BME280;61524;50.938;11.396;2023-06-14T02:11:52;99003.66;;;11.22;80.00
73297;BME280;61524;50.938;11.396;2023-06-14T02:14:17;99002.13;;;11.26;78.48
73297;BME280;61524;50.938;11.396;2023-06-14T02:16:43;98998.91;;;11.29;79.09
73297;BME280;61524;50.938;11.396;2023-06-14T02:19:17;99000.28;;;11.32;79.51
73297;BME280;61524;50.938;11.396;2023-06-14T02:21:43;99012.59;;;11.33;78.39
73297;BME280;61524;50.938;11.396;2023-06-14T02:24:09;99002.44;;;11.30;79.26
73297;BME280;61524;50.938;11.396;2023-06-14T02:26:35;99006.41;;;11.27;79.21
73297;BME280;61524;50.938;11.396;2023-06-14T02:29:03;99001.03;;;11.27;79.81
73297;BME280;61524;50.938;11.396;2023-06-14T02:31:28;99014.41;;;11.27;79.42
73297;BME280;61524;50.938;11.396;2023-06-14T02:33:54;99008.75;;;11.24;79.73
73297;BME280;61524;50.938;11.396;2023-06-14T02:36:19;99004.66;;;11.16;79.70
73297;BME280;61524;50.938;11.396;2023-06-14T02:38:45;99009.75;;;11.18;79.49
73297;BME280;61524;50.938;11.396;2023-06-14T02:41:12;99007.28;;;11.11;79.46
73297;BME280;61524;50.938;11.396;2023-06-14T02:43:37;99007.72;;;11.03;79.58
73297;BME280;61524;50.938;11.396;2023-06-14T02:46:03;99004.50;;;11.01;79.66
73297;BME280;61524;50.938;11.396;2023-06-14T02:48:29;99009.84;;;11.01;79.57
73297;BME280;61524;50.938;11.396;2023-06-14T02:50:55;99012.78;;;10.99;79.31
73297;BME280;61524;50.938;11.396;2023-06-14T02:53:21;99018.94;;;11.00;78.83
73297;BME280;61524;50.938;11.396;2023-06-14T02:55:47;99020.06;;;11.04;79.29
73297;BME280;61524;50.938;11.396;2023-06-14T02:58:13;99011.09;;;10.93;78.86
73297;BME280;61524;50.938;11.396;2023-06-14T03:00:39;99010.78;;;10.90;78.85
73297;BME280;61524;50.938;11.396;2023-06-14T03:03:06;99019.34;;;10.92;78.44
73297;BME280;61524;50.938;11.396;2023-06-14T03:05:40;99018.25;;;10.88;78.84
73297;BME280;61524;50.938;11.396;2023-06-14T03:08:11;99013.66;;;10.83;79.11
73297;BME280;61524;50.938;11.396;2023-06-14T03:10:42;99012.78;;;10.77;79.06
73297;BME280;61524;50.938;11.396;2023-06-14T03:13:08;99033.28;;;10.72;79.97
73297;BME280;61524;50.938;11.396;2023-06-14T03:15:34;99024.69;;;10.70;80.51
73297;BME280;61524;50.938;11.396;2023-06-14T03:18:00;99024.53;;;10.76;79.91
73297;BME280;61524;50.938;11.396;2023-06-14T03:20:25;99032.97;;;10.68;80.04
73297;BME280;61524;50.938;11.396;2023-06-14T03:22:54;99038.69;;;10.55;80.91
73297;BME280;61524;50.938;11.396;2023-06-14T03:25:19;99026.59;;;10.52;81.04
73297;BME280;61524;50.938;11.396;2023-06-14T03:27:47;99027.63;;;10.68;80.82
73297;BME280;61524;50.938;11.396;2023-06-14T03:30:13;99035.03;;;10.83;80.34
73297;BME280;61524;50.938;11.396;2023-06-14T03:32:38;99034.44;;;10.81;80.39
73297;BME280;61524;50.938;11.396;2023-06-14T03:35:04;99036.66;;;10.84;80.24
73297;BME280;61524;50.938;11.396;2023-06-14T03:37:30;99044.41;;;10.86;79.81
73297;BME280;61524;50.938;11.396;2023-06-14T03:39:55;99040.25;;;10.95;79.40
73297;BME280;61524;50.938;11.396;2023-06-14T03:42:21;99044.28;;;10.75;80.20
73297;BME280;61524;50.938;11.396;2023-06-14T03:44:46;99043.72;;;10.95;79.34
73297;BME280;61524;50.938;11.396;2023-06-14T03:47:12;99054.16;;;11.19;78.32
73297;BME280;61524;50.938;11.396;2023-06-14T03:49:37;99038.06;;;11.14;78.80
73297;BME280;61524;50.938;11.396;2023-06-14T03:52:03;99057.34;;;10.94;79.37
73297;BME280;61524;50.938;11.396;2023-06-14T03:54:29;99066.91;;;10.90;80.61
73297;BME280;61524;50.938;11.396;2023-06-14T03:56:55;99061.69;;;11.00;80.46
73297;BME280;61524;50.938;11.396;2023-06-14T03:59:22;99073.53;;;11.53;79.61
73297;BME280;61524;50.938;11.396;2023-06-14T04:01:48;99065.25;;;12.46;76.20
73297;BME280;61524;50.938;11.396;2023-06-14T04:04:14;99058.72;;;13.31;73.29
73297;BME280;61524;50.938;11.396;2023-06-14T04:06:41;99061.00;;;14.11;70.40
73297;BME280;61524;50.938;11.396;2023-06-14T04:09:08;99069.81;;;14.42;68.96
73297;BME280;61524;50.938;11.396;2023-06-14T04:11:33;99071.19;;;14.70;68.82
73297;BME280;61524;50.938;11.396;2023-06-14T04:13:59;99076.53;;;14.85;68.63
73297;BME280;61524;50.938;11.396;2023-06-14T04:16:25;99086.53;;;15.39;67.39
73297;BME280;61524;50.938;11.396;2023-06-14T04:18:50;99085.91;;;15.58;66.17
73297;BME280;61524;50.938;11.396;2023-06-14T04:21:17;99073.06;;;15.89;64.93
73297;BME280;61524;50.938;11.396;2023-06-14T04:23:43;99085.94;;;16.31;64.19
73297;BME280;61524;50.938;11.396;2023-06-14T04:26:09;99083.22;;;16.36;63.13
73297;BME280;61524;50.938;11.396;2023-06-14T04:28:36;99072.22;;;16.57;62.63
73297;BME280;61524;50.938;11.396;2023-06-14T04:31:06;99088.19;;;17.68;59.58
73297;BME280;61524;50.938;11.396;2023-06-14T04:33:37;99081.88;;;17.77;59.73
73297;BME280;61524;50.938;11.396;2023-06-14T04:36:10;99094.25;;;17.59;60.69
73297;BME280;61524;50.938;11.396;2023-06-14T04:38:37;99091.59;;;17.97;60.17
73297;BME280;61524;50.938;11.396;2023-06-14T04:41:03;99097.94;;;19.54;57.07
73297;BME280;61524;50.938;11.396;2023-06-14T04:43:28;99101.44;;;19.69;56.36
73297;BME280;61524;50.938;11.396;2023-06-14T04:45:54;99092.31;;;19.37;56.04
73297;BME280;61524;50.938;11.396;2023-06-14T04:48:21;99092.75;;;19.17;57.12
73297;BME280;61524;50.938;11.396;2023-06-14T04:50:47;99110.09;;;19.71;55.19
73297;BME280;61524;50.938;11.396;2023-06-14T04:53:13;99100.63;;;20.27;54.72
73297;BME280;61524;50.938;11.396;2023-06-14T04:55:38;99095.53;;;20.03;54.55
73297;BME280;61524;50.938;11.396;2023-06-14T04:58:05;99103.16;;;19.64;56.70
73297;BME280;61524;50.938;11.396;2023-06-14T05:00:31;99102.09;;;19.88;56.04
73297;BME280;61524;50.938;11.396;2023-06-14T05:02:57;99101.25;;;19.51;56.88
73297;BME280;61524;50.938;11.396;2023-06-14T05:05:22;99108.53;;;20.37;53.96
73297;BME280;61524;50.938;11.396;2023-06-14T05:07:49;99109.69;;;20.22;54.54
73297;BME280;61524;50.938;11.396;2023-06-14T05:10:15;99104.69;;;19.93;56.17
73297;BME280;61524;50.938;11.396;2023-06-14T05:12:40;99109.59;;;20.81;54.12
73297;BME280;61524;50.938;11.396;2023-06-14T05:15:09;99116.50;;;20.56;53.88
73297;BME280;61524;50.938;11.396;2023-06-14T05:17:35;99118.53;;;20.50;54.97
73297;BME280;61524;50.938;11.396;2023-06-14T05:20:01;99111.88;;;20.56;55.25
73297;BME280;61524;50.938;11.396;2023-06-14T05:22:27;99110.19;;;21.09;54.52
73297;BME280;61524;50.938;11.396;2023-06-14T05:24:53;99121.91;;;20.87;53.67
73297;BME280;61524;50.938;11.396;2023-06-14T05:27:18;99110.31;;;21.04;53.42
73297;BME280;61524;50.938;11.396;2023-06-14T05:29:43;99114.97;;;21.43;52.96
73297;BME280;61524;50.938;11.396;2023-06-14T05:32:09;99117.34;;;20.42;54.38
73297;BME280;61524;50.938;11.396;2023-06-14T05:34:35;99116.69;;;20.90;54.49
73297;BME280;61524;50.938;11.396;2023-06-14T05:37:00;99122.88;;;20.51;55.29
73297;BME280;61524;50.938;11.396;2023-06-14T05:39:26;99106.84;;;21.78;53.35
73297;BME280;61524;50.938;11.396;2023-06-14T05:41:51;99113.28;;;22.25;52.10
73297;BME280;61524;50.938;11.396;2023-06-14T05:44:16;99114.56;;;22.36;51.78
73297;BME280;61524;50.938;11.396;2023-06-14T05:46:42;99117.75;;;21.20;54.28
73297;BME280;61524;50.938;11.396;2023-06-14T05:49:07;99122.88;;;20.37;56.17
73297;BME280;61524;50.938;11.396;2023-06-14T05:51:33;99111.31;;;21.73;54.10
73297;BME280;61524;50.938;11.396;2023-06-14T05:53:58;99124.59;;;21.66;53.49
73297;BME280;61524;50.938;11.396;2023-06-14T05:56:24;99123.78;;;21.09;53.90
73297;BME280;61524;50.938;11.396;2023-06-14T05:58:51;99121.56;;;21.11;53.92
73297;BME280;61524;50.938;11.396;2023-06-14T06:01:16;99130.34;;;21.56;53.76
73297;BME280;61524;50.938;11.396;2023-06-14T06:03:41;99133.72;;;21.62;53.55
73297;BME280;61524;50.938;11.396;2023-06-14T06:06:11;99140.31;;;22.04;52.05
73297;BME280;61524;50.938;11.396;2023-06-14T06:08:36;99138.63;;;22.81;50.82
73297;BME280;61524;50.938;11.396;2023-06-14T06:11:02;99136.09;;;21.06;54.32
73297;BME280;61524;50.938;11.396;2023-06-14T06:13:27;99138.91;;;20.61;54.52
73297;BME280;61524;50.938;11.396;2023-06-14T06:15:53;99140.56;;;21.42;53.95
73297;BME280;61524;50.938;11.396;2023-06-14T06:18:18;99148.19;;;20.69;55.61
73297;BME280;61524;50.938;11.396;2023-06-14T06:20:44;99152.75;;;20.60;54.81
73297;BME280;61524;50.938;11.396;2023-06-14T06:23:11;99143.81;;;22.65;51.28
73297;BME280;61524;50.938;11.396;2023-06-14T06:25:37;99148.25;;;20.55;54.89
73297;BME280;61524;50.938;11.396;2023-06-14T06:28:02;99150.38;;;20.89;54.71
73297;BME280;61524;50.938;11.396;2023-06-14T06:30:28;99134.63;;;21.40;53.71
73297;BME280;61524;50.938;11.396;2023-06-14T06:32:53;99142.78;;;21.00;53.89
73297;BME280;61524;50.938;11.396;2023-06-14T06:35:20;99141.63;;;22.07;52.45
73297;BME280;61524;50.938;11.396;2023-06-14T06:37:46;99141.53;;;21.55;52.59
73297;BME280;61524;50.938;11.396;2023-06-14T06:40:11;99150.97;;;21.48;53.48
73297;BME280;61524;50.938;11.396;2023-06-14T06:42:37;99146.41;;;21.92;52.59
73297;BME280;61524;50.938;11.396;2023-06-14T06:45:03;99149.81;;;23.44;49.45
73297;BME280;61524;50.938;11.396;2023-06-14T06:47:29;99140.75;;;21.54;53.82
73297;BME280;61524;50.938;11.396;2023-06-14T06:49:55;99155.19;;;22.59;51.56
73297;BME280;61524;50.938;11.396;2023-06-14T06:52:20;99140.59;;;21.19;54.34
73297;BME280;61524;50.938;11.396;2023-06-14T06:54:46;99153.13;;;22.56;52.13
73297;BME280;61524;50.938;11.396;2023-06-14T06:57:11;99148.41;;;21.52;54.18
73297;BME280;61524;50.938;11.396;2023-06-14T06:59:37;99152.25;;;23.96;48.83
73297;BME280;61524;50.938;11.396;2023-06-14T07:02:03;99149.50;;;24.17;47.98
73297;BME280;61524;50.938;11.396;2023-06-14T07:04:29;99155.94;;;23.70;48.75
73297;BME280;61524;50.938;11.396;2023-06-14T07:06:54;99153.28;;;23.53;49.05
73297;BME280;61524;50.938;11.396;2023-06-14T07:09:20;99161.69;;;23.39;49.79
73297;BME280;61524;50.938;11.396;2023-06-14T07:11:47;99155.66;;;21.74;52.78
73297;BME280;61524;50.938;11.396;2023-06-14T07:14:12;99165.59;;;23.29;50.60
73297;BME280;61524;50.938;11.396;2023-06-14T07:16:38;99165.78;;;22.08;51.39
73297;BME280;61524;50.938;11.396;2023-06-14T07:19:04;99168.78;;;22.76;50.70
73297;BME280;61524;50.938;11.396;2023-06-14T07:21:31;99166.44;;;23.51;50.26
73297;BME280;61524;50.938;11.396;2023-06-14T07:23:57;99171.41;;;22.55;50.97
73297;BME280;61524;50.938;11.396;2023-06-14T07:26:22;99180.16;;;23.42;50.39
73297;BME280;61524;50.938;11.396;2023-06-14T07:28:48;99168.44;;;24.01;48.53
73297;BME280;61524;50.938;11.396;2023-06-14T07:31:17;99187.41;;;25.05;46.67
73297;BME280;61524;50.938;11.396;2023-06-14T07:33:44;99185.16;;;23.70;48.73
73297;BME280;61524;50.938;11.396;2023-06-14T07:36:10;99192.03;;;22.04;51.10
73297;BME280;61524;50.938;11.396;2023-06-14T07:38:35;99190.63;;;23.31;49.76
73297;BME280;61524;50.938;11.396;2023-06-14T07:41:02;99187.13;;;21.58;53.01
73297;BME280;61524;50.938;11.396;2023-06-14T07:43:27;99181.94;;;22.83;51.12
73297;BME280;61524;50.938;11.396;2023-06-14T07:45:53;99188.09;;;20.91;54.58
73297;BME280;61524;50.938;11.396;2023-06-14T07:48:18;99187.22;;;21.92;53.31
73297;BME280;61524;50.938;11.396;2023-06-14T07:50:44;99196.34;;;21.08;54.19
73297;BME280;61524;50.938;11.396;2023-06-14T07:53:09;99187.47;;;21.25;53.81
73297;BME280;61524;50.938;11.396;2023-06-14T07:55:35;99174.28;;;22.41;51.57
73297;BME280;61524;50.938;11.396;2023-06-14T07:58:06;99194.31;;;22.28;51.47
73297;BME280;61524;50.938;11.396;2023-06-14T08:00:31;99179.69;;;23.70;49.04
73297;BME280;61524;50.938;11.396;2023-06-14T08:02:57;99184.97;;;23.75;49.34
73297;BME280;61524;50.938;11.396;2023-06-14T08:05:27;99193.00;;;24.01;48.74
73297;BME280;61524;50.938;11.396;2023-06-14T08:07:53;99192.19;;;22.77;50.32
73297;BME280;61524;50.938;11.396;2023-06-14T08:10:18;99192.66;;;22.10;52.63
73297;BME280;61524;50.938;11.396;2023-06-14T08:12:44;99185.03;;;22.20;52.42
73297;BME280;61524;50.938;11.396;2023-06-14T08:15:10;99183.03;;;21.95;53.10
73297;BME280;61524;50.938;11.396;2023-06-14T08:17:35;99177.97;;;22.19;53.47
73297;BME280;61524;50.938;11.396;2023-06-14T08:20:01;99188.06;;;22.10;53.20
73297;BME280;61524;50.938;11.396;2023-06-14T08:22:27;99177.25;;;21.79;52.63
73297;BME280;61524;50.938;11.396;2023-06-14T08:24:57;99195.06;;;21.37;52.39
73297;BME280;61524;50.938;11.396;2023-06-14T08:27:22;99181.13;;;21.95;52.70
73297;BME280;61524;50.938;11.396;2023-06-14T08:29:47;99187.81;;;21.63;54.40
73297;BME280;61524;50.938;11.396;2023-06-14T08:32:13;99186.28;;;22.58;51.91
73297;BME280;61524;50.938;11.396;2023-06-14T08:34:38;99187.88;;;22.67;51.12
73297;BME280;61524;50.938;11.396;2023-06-14T08:37:04;99176.19;;;21.97;52.54
73297;BME280;61524;50.938;11.396;2023-06-14T08:39:30;99184.28;;;21.71;52.51
73297;BME280;61524;50.938;11.396;2023-06-14T08:41:56;99186.22;;;21.71;53.57
73297;BME280;61524;50.938;11.396;2023-06-14T08:44:22;99187.31;;;21.21;52.95
73297;BME280;61524;50.938;11.396;2023-06-14T08:46:48;99181.50;;;22.11;52.22
73297;BME280;61524;50.938;11.396;2023-06-14T08:49:16;99181.13;;;22.04;52.14
73297;BME280;61524;50.938;11.396;2023-06-14T08:51:42;99183.25;;;22.50;49.91
73297;BME280;61524;50.938;11.396;2023-06-14T08:54:10;99185.44;;;21.31;52.74
73297;BME280;61524;50.938;11.396;2023-06-14T08:56:38;99190.31;;;21.51;52.38
73297;BME280;61524;50.938;11.396;2023-06-14T08:59:04;99184.53;;;20.82;53.46
73297;BME280;61524;50.938;11.396;2023-06-14T09:01:37;99183.03;;;21.69;51.84
73297;BME280;61524;50.938;11.396;2023-06-14T09:04:03;99186.53;;;21.78;52.15
73297;BME280;61524;50.938;11.396;2023-06-14T09:06:31;99183.72;;;22.61;50.74
73297;BME280;61524;50.938;11.396;2023-06-14T09:08:57;99188.19;;;22.74;51.68
73297;BME280;61524;50.938;11.396;2023-06-14T09:11:23;99191.13;;;20.89;53.10
73297;BME280;61524;50.938;11.396;2023-06-14T09:13:49;99190.56;;;21.81;51.61
73297;BME280;61524;50.938;11.396;2023-06-14T09:16:15;99193.31;;;21.41;51.98
73297;BME280;61524;50.938;11.396;2023-06-14T09:18:43;99182.03;;;21.65;51.61
73297;BME280;61524;50.938;11.396;2023-06-14T09:21:10;99187.97;;;20.96;52.92
73297;BME280;61524;50.938;11.396;2023-06-14T09:23:37;99201.47;;;21.41;52.27
73297;BME280;61524;50.938;11.396;2023-06-14T09:26:28;99189.78;;;22.84;50.03
73297;BME280;61524;50.938;11.396;2023-06-14T09:28:53;99183.59;;;22.40;49.41
73297;BME280;61524;50.938;11.396;2023-06-14T09:31:19;99209.03;;;22.53;49.71
73297;BME280;61524;50.938;11.396;2023-06-14T09:33:47;99197.13;;;21.80;49.28
73297;BME280;61524;50.938;11.396;2023-06-14T09:39:02;99203.59;;;22.88;47.51
73297;BME280;61524;50.938;11.396;2023-06-14T09:41:36;99193.53;;;23.26;47.42
73297;BME280;61524;50.938;11.396;2023-06-14T09:44:03;99194.81;;;23.88;47.85
73297;BME280;61524;50.938;11.396;2023-06-14T09:46:30;99202.75;;;22.78;47.73
73297;BME280;61524;50.938;11.396;2023-06-14T09:48:58;99191.41;;;22.33;49.06
73297;BME280;61524;50.938;11.396;2023-06-14T09:51:25;99200.44;;;21.68;49.64
73297;BME280;61524;50.938;11.396;2023-06-14T09:53:52;99185.53;;;22.22;49.42
73297;BME280;61524;50.938;11.396;2023-06-14T09:56:23;99188.47;;;21.78;49.41
73297;BME280;61524;50.938;11.396;2023-06-14T09:58:55;99182.94;;;22.61;49.22
73297;BME280;61524;50.938;11.396;2023-06-14T10:01:23;99183.16;;;23.11;47.13
73297;BME280;61524;50.938;11.396;2023-06-14T10:03:58;99189.34;;;22.56;48.81
73297;BME280;61524;50.938;11.396;2023-06-14T10:06:28;99188.69;;;22.76;49.62
73297;BME280;61524;50.938;11.396;2023-06-14T10:08:57;99189.03;;;23.22;46.98
73297;BME280;61524;50.938;11.396;2023-06-14T10:11:23;99189.94;;;22.79;46.58
73297;BME280;61524;50.938;11.396;2023-06-14T10:13:50;99186.97;;;22.29;47.66
73297;BME280;61524;50.938;11.396;2023-06-14T10:16:42;99173.06;;;23.03;47.10
73297;BME280;61524;50.938;11.396;2023-06-14T10:19:21;99187.09;;;23.69;46.52
73297;BME280;61524;50.938;11.396;2023-06-14T10:22:08;99171.22;;;22.08;48.37
73297;BME280;61524;50.938;11.396;2023-06-14T10:24:42;99176.22;;;22.32;47.99
73297;BME280;61524;50.938;11.396;2023-06-14T10:27:08;99187.03;;;23.40;47.46
73297;BME280;61524;50.938;11.396;2023-06-14T10:32:22;99195.75;;;22.43;48.45
73297;BME280;61524;50.938;11.396;2023-06-14T10:34:56;99193.13;;;21.86;49.13
73297;BME280;61524;50.938;11.396;2023-06-14T10:37:23;99170.97;;;21.53;48.66
73297;BME280;61524;50.938;11.396;2023-06-14T10:39:50;99176.34;;;22.10;47.64
73297;BME280;61524;50.938;11.396;2023-06-14T10:42:15;99164.59;;;22.96;47.24
73297;BME280;61524;50.938;11.396;2023-06-14T10:44:42;99164.47;;;23.60;46.24
73297;BME280;61524;50.938;11.396;2023-06-14T10:47:10;99171.44;;;23.11;46.95
73297;BME280;61524;50.938;11.396;2023-06-14T10:57:41;99167.06;;;22.63;47.71
73297;BME280;61524;50.938;11.396;2023-06-14T11:00:08;99173.50;;;22.41;46.88
73297;BME280;61524;50.938;11.396;2023-06-14T11:05:26;99166.88;;;22.68;46.86
73297;BME280;61524;50.938;11.396;2023-06-14T11:10:59;99162.56;;;21.80;46.74
73297;BME280;61524;50.938;11.396;2023-06-14T11:13:26;99157.97;;;22.24;47.56
73297;BME280;61524;50.938;11.396;2023-06-14T11:15:52;99165.94;;;22.64;47.09
73297;BME280;61524;50.938;11.396;2023-06-14T11:18:23;99159.84;;;22.67;46.23
73297;BME280;61524;50.938;11.396;2023-06-14T11:20:53;99161.94;;;23.25;45.95
73297;BME280;61524;50.938;11.396;2023-06-14T11:23:19;99156.16;;;23.27;44.63
73297;BME280;61524;50.938;11.396;2023-06-14T11:25:50;99153.22;;;23.70;45.26
73297;BME280;61524;50.938;11.396;2023-06-14T11:28:16;99156.03;;;22.42;45.34
73297;BME280;61524;50.938;11.396;2023-06-14T11:30:41;99151.94;;;22.91;46.11
73297;BME280;61524;50.938;11.396;2023-06-14T11:33:09;99148.31;;;22.61;44.57
73297;BME280;61524;50.938;11.396;2023-06-14T11:35:35;99147.16;;;23.56;44.04
73297;BME280;61524;50.938;11.396;2023-06-14T11:38:01;99140.88;;;23.35;45.10
73297;BME280;61524;50.938;11.396;2023-06-14T11:40:27;99142.56;;;23.77;43.98
73297;BME280;61524;50.938;11.396;2023-06-14T11:42:59;99147.94;;;23.65;44.32
73297;BME280;61524;50.938;11.396;2023-06-14T11:45:26;99142.72;;;24.02;43.04
73297;BME280;61524;50.938;11.396;2023-06-14T11:47:54;99158.03;;;23.35;43.68
73297;BME280;61524;50.938;11.396;2023-06-14T11:50:21;99144.09;;;23.28;43.46
73297;BME280;61524;50.938;11.396;2023-06-14T11:52:57;99146.19;;;22.93;44.15
73297;BME280;61524;50.938;11.396;2023-06-14T11:55:25;99145.97;;;22.25;45.61
73297;BME280;61524;50.938;11.396;2023-06-14T11:57:51;99146.56;;;23.21;44.43
73297;BME280;61524;50.938;11.396;2023-06-14T12:00:19;99143.56;;;23.05;44.17
73297;BME280;61524;50.938;11.396;2023-06-14T12:02:54;99143.22;;;22.08;45.90
73297;BME280;61524;50.938;11.396;2023-06-14T12:05:23;99152.94;;;21.83;45.94
73297;BME280;61524;50.938;11.396;2023-06-14T12:07:49;99149.13;;;22.53;45.40
73297;BME280;61524;50.938;11.396;2023-06-14T12:10:16;99142.03;;;23.63;44.08
73297;BME280;61524;50.938;11.396;2023-06-14T12:12:42;99149.03;;;23.35;43.46
73297;BME280;61524;50.938;11.396;2023-06-14T12:15:08;99142.97;;;22.91;43.55
73297;BME280;61524;50.938;11.396;2023-06-14T12:17:36;99133.13;;;22.08;45.04
73297;BME280;61524;50.938;11.396;2023-06-14T12:20:11;99146.09;;;22.37;45.38
73297;BME280;61524;50.938;11.396;2023-06-14T12:22:46;99143.97;;;23.24;43.90
73297;BME280;61524;50.938;11.396;2023-06-14T12:25:27;99139.81;;;23.18;44.11
73297;BME280;61524;50.938;11.396;2023-06-14T12:27:54;99130.31;;;24.04;43.74
73297;BME280;61524;50.938;11.396;2023-06-14T12:30:20;99136.91;;;24.24;42.06
73297;BME280;61524;50.938;11.396;2023-06-14T12:32:45;99129.41;;;23.79;42.30
73297;BME280;61524;50.938;11.396;2023-06-14T12:35:11;99134.47;;;23.90;43.25
73297;BME280;61524;50.938;11.396;2023-06-14T12:37:36;99141.38;;;22.90;44.74
73297;BME280;61524;50.938;11.396;2023-06-14T12:40:02;99144.72;;;23.04;43.63
73297;BME280;61524;50.938;11.396;2023-06-14T12:42:31;99143.81;;;23.50;42.85
73297;BME280;61524;50.938;11.396;2023-06-14T12:44:58;99138.13;;;23.94;41.73
73297;BME280;61524;50.938;11.396;2023-06-14T12:47:23;99131.16;;;23.84;41.58
73297;BME280;61524;50.938;11.396;2023-06-14T12:49:48;99123.81;;;23.08;43.25
73297;BME280;61524;50.938;11.396;2023-06-14T12:52:14;99125.44;;;22.27;43.77
73297;BME280;61524;50.938;11.396;2023-06-14T12:54:39;99130.31;;;24.04;42.62
73297;BME280;61524;50.938;11.396;2023-06-14T12:57:06;99139.81;;;23.18;43.07
73297;BME280;61524;50.938;11.396;2023-06-14T12:59:32;99114.72;;;23.34;43.38
73297;BME280;61524;50.938;11.396;2023-06-14T13:02:14;99122.06;;;23.12;43.98
73297;BME280;61524;50.938;11.396;2023-06-14T13:04:40;99126.31;;;23.51;41.83
73297;BME280;61524;50.938;11.396;2023-06-14T13:07:05;99123.84;;;23.38;41.07
73297;BME280;61524;50.938;11.396;2023-06-14T13:09:31;99126.47;;;23.85;40.79
73297;BME280;61524;50.938;11.396;2023-06-14T13:11:56;99122.31;;;24.20;42.09
73297;BME280;61524;50.938;11.396;2023-06-14T13:14:22;99122.38;;;23.11;44.43
73297;BME280;61524;50.938;11.396;2023-06-14T13:16:47;99132.22;;;23.33;43.84